Wednesday, September 28, 2016, 11:14 PM EDT

KSHD, Staunton / Shenandoah

Location: Weyers Cave, VA, United States Lat: 38.267
Local Time: 11:14 PM EDT ( 3:14 GMT) Lon: -78.9
Time Zone: US/Eastern Elev: 1200 ft

Show me the last for .
Show Decoded

2016-09-28 22:55 METAR KSHD 290255Z AUTO 33004KT 10SM -RA SCT013 BKN017 OVC023 18/17 A3002 RMK
                 AO2 LTG DSNT SE AND S P0001 60001 T01760165 =
2016-09-28 22:35 METAR KSHD 290235Z AUTO 00000KT 10SM -VCTSDZ SCT013 OVC024 18/17 A3003 RMK AO2
                 LTG DSNT E THRU S T01810165 =
2016-09-28 22:15 METAR KSHD 290215Z AUTO 34003KT 10SM OVC013 18/17 A3003 RMK AO2 LTG DSNT E THRU
                 SW T01800165 =
2016-09-28 21:55 METAR KSHD 290155Z AUTO 03006KT 10SM DZ OVC017 18/17 A3002 RMK AO2 LTG DSNT SE
                 THRU SW T01800165 =
2016-09-28 21:35 METAR KSHD 290135Z AUTO 03006KT 10SM OVC017 18/16 A3001 RMK AO2 LTG DSNT SE AND
                 SW T01790162 =
2016-09-28 21:15 METAR KSHD 290115Z AUTO 04006KT 10SM OVC015 18/16 A3002 RMK AO2 LTG DSNT SE AND
                 SW T01800161 =
2016-09-28 20:55 METAR KSHD 290055Z AUTO 05005KT 10SM OVC015 19/16 A3003 RMK AO2 LTG DSNT E
                 T01850162 =
2016-09-28 20:35 METAR KSHD 290035Z AUTO 06005KT 10SM BKN018 OVC024 19/16 A3003 RMK AO2 LTG DSNT
                 E THRU SW T01850163 =
2016-09-28 20:15 METAR KSHD 290015Z AUTO 06005KT 10SM BKN017 OVC025 19/16 A3002 RMK AO2 LTG DSNT
                 E AND SE T01870164 =
2016-09-28 19:55 METAR KSHD 282355Z AUTO 04006KT 10SM OVC017 19/17 A3002 RMK AO2 LTG DSNT E AND
                 SE T01890165 10211 20188 =
2016-09-28 19:35 METAR KSHD 282335Z AUTO 04005KT 10SM VCTS BKN019 OVC029 19/17 A3001 RMK AO2 LTG
                 DSNT SE AND S T01890165 =
2016-09-28 19:15 METAR KSHD 282315Z AUTO 05005KT 10SM OVC029 19/17 A3000 RMK AO2 LTG DSNT S
                 T01900165 =
2016-09-28 18:55 METAR KSHD 282255Z AUTO 05007KT 10SM BKN027 OVC033 19/17 A2999 RMK AO2 T01910165
                 =
2016-09-28 18:35 METAR KSHD 282235Z AUTO 07005KT 10SM OVC023 19/17 A3000 RMK AO2 LTG DSNT E AND
                 SW T01930165 =
2016-09-28 18:15 METAR KSHD 282215Z AUTO 07005KT 10SM SCT018 OVC025 20/17 A2999 RMK AO2 T01950167
                 =
2016-09-28 17:55 METAR KSHD 282155Z AUTO 09004KT 10SM OVC018 20/17 A3000 RMK AO2 LTG DSNT E
                 T01950165 =
2016-09-28 17:35 METAR KSHD 282135Z AUTO 07009KT 10SM OVC018 20/17 A2999 RMK AO2 T01950165 =
2016-09-28 17:15 METAR KSHD 282115Z AUTO 06005KT 10SM OVC018 20/17 A2999 RMK AO2 T01970165 =
2016-09-28 16:55 METAR KSHD 282055Z AUTO 06008KT 10SM OVC018 20/17 A2998 RMK AO2 T02040168 =
2016-09-28 16:35 METAR KSHD 282035Z AUTO 04007KT 10SM OVC020 20/17 A2998 RMK AO2 LTG DSNT E AND
                 SW T02040170 =
2016-09-28 16:15 METAR KSHD 282015Z AUTO 01006KT 10SM OVC020 21/17 A2997 RMK AO2 LTG DSNT E
                 T02050171 =
2016-09-28 15:55 METAR KSHD 281955Z AUTO 01005KT 10SM OVC018 20/17 A2998 RMK AO2 LTG DSNT E AND
                 SE T02020168 =
2016-09-28 15:35 METAR KSHD 281935Z AUTO 02006KT 10SM OVC018 20/17 A2998 RMK AO2 LTG DSNT SE
                 T02040169 =
2016-09-28 15:15 METAR KSHD 281915Z AUTO 01006KT 10SM OVC018 21/17 A2998 RMK AO2 T02050171 =
2016-09-28 14:55 METAR KSHD 281855Z AUTO 01006KT 10SM BKN018 OVC027 20/17 A2999 RMK AO2 T02040170
                 =
2016-09-28 14:35 METAR KSHD 281835Z AUTO 02003KT 10SM SCT018 BKN024 OVC029 21/17 A2999 RMK AO2
                 T02050170 =
2016-09-28 14:15 METAR KSHD 281815Z AUTO 03004KT 10SM BKN016 OVC022 20/17 A3000 RMK AO2 LTG DSNT
                 E T02020168 =
2016-09-28 13:55 METAR KSHD 281755Z AUTO 00000KT 10SM OVC018 20/17 A3000 RMK AO2 T02010165 10204
                 20152 =
2016-09-28 13:35 METAR KSHD 281735Z AUTO 02003KT 10SM OVC016 20/17 A3000 RMK AO2 T01990165 =
2016-09-28 13:15 METAR KSHD 281715Z AUTO 03004KT 10SM OVC016 20/17 A3000 RMK AO2 LTG DSNT E
                 T02010166 =
2016-09-28 12:55 METAR KSHD 281655Z AUTO 05003KT 10SM OVC016 19/16 A3001 RMK AO2 T01930160 =
2016-09-28 12:35 METAR KSHD 281635Z AUTO 00000KT 10SM OVC016 19/16 A3001 RMK AO2 T01910159 =
2016-09-28 12:15 METAR KSHD 281615Z AUTO 00000KT 10SM OVC014 19/16 A3002 RMK AO2 T01890157 =
2016-09-28 11:55 METAR KSHD 281555Z AUTO 00000KT 10SM OVC012 18/15 A3002 RMK AO2 T01840154 =
2016-09-28 11:35 METAR KSHD 281535Z AUTO 00000KT 10SM OVC012 18/15 A3002 RMK AO2 T01800152 =
2016-09-28 11:15 METAR KSHD 281515Z AUTO 00000KT 10SM OVC012 18/15 A3002 RMK AO2 T01750150 =
2016-09-28 10:55 METAR KSHD 281455Z AUTO 00000KT 10SM OVC012 17/15 A3002 RMK AO2 T01710146 =
2016-09-28 10:35 METAR KSHD 281435Z AUTO 00000KT 10SM OVC012 17/14 A3003 RMK AO2 T01670141 =
2016-09-28 10:15 METAR KSHD 281415Z AUTO 00000KT 10SM OVC012 17/14 A3003 RMK AO2 T01670140 =
2016-09-28 09:55 METAR KSHD 281355Z AUTO 00000KT 10SM OVC012 16/14 A3002 RMK AO2 T01620137 =
2016-09-28 09:35 METAR KSHD 281335Z AUTO 00000KT 10SM OVC014 16/14 A3001 RMK AO2 T01600136 =
2016-09-28 09:15 METAR KSHD 281315Z AUTO 00000KT 10SM OVC016 16/14 A3000 RMK AO2 T01600135 =
2016-09-28 08:55 METAR KSHD 281255Z AUTO 00000KT 10SM OVC016 16/13 A2999 RMK AO2 T01580134 =
2016-09-28 08:35 METAR KSHD 281235Z AUTO 00000KT 10SM OVC014 16/13 A2998 RMK AO2 LTG DSNT SE
                 T01580133 =
2016-09-28 08:15 METAR KSHD 281215Z AUTO 00000KT 10SM VCTS OVC014 16/13 A2998 RMK AO2 LTG DSNT SE
                 T01550133 =
2016-09-28 07:55 METAR KSHD 281155Z AUTO 00000KT 10SM OVC014 15/13 A2999 RMK AO2 LTG DSNT SE
                 T01510131 10152 20139 =
2016-09-28 07:35 METAR KSHD 281135Z AUTO 00000KT 10SM OVC014 15/13 A2999 RMK AO2 T01510130 =
2016-09-28 07:15 METAR KSHD 281115Z AUTO 00000KT 10SM OVC014 15/13 A2998 RMK AO2 LTG DSNT E
                 T01510131 =
2016-09-28 06:55 METAR KSHD 281055Z AUTO 00000KT 10SM OVC014 15/14 A2998 RMK AO2 LTG DSNT SE
                 T01500135 =
2016-09-28 06:35 METAR KSHD 281035Z AUTO 00000KT 10SM OVC014 15/13 A2998 RMK AO2 T01520129 =
2016-09-28 06:15 METAR KSHD 281015Z AUTO 00000KT 10SM OVC014 15/13 A2997 RMK AO2 T01500132 =
2016-09-28 05:55 METAR KSHD 280955Z AUTO 00000KT 10SM OVC014 15/13 A2997 RMK AO2 LTG DSNT SE
                 T01500127 =
2016-09-28 05:35 METAR KSHD 280935Z AUTO 00000KT 10SM OVC014 15/13 A2998 RMK AO2 T01480131 =
2016-09-28 05:15 METAR KSHD 280915Z AUTO 00000KT 10SM OVC015 15/13 A2997 RMK AO2 T01460130 =
2016-09-28 04:55 METAR KSHD 280855Z AUTO 00000KT 10SM OVC017 15/13 A2996 RMK AO2 LTG DSNT SE
                 T01480130 =
2016-09-28 04:35 METAR KSHD 280835Z AUTO 00000KT 10SM OVC017 15/13 A2996 RMK AO2 T01470131 =
2016-09-28 04:15 METAR KSHD 280815Z AUTO 00000KT 10SM OVC019 14/13 A2996 RMK AO2 T01440130 =
2016-09-28 03:55 METAR KSHD 280755Z AUTO 00000KT 10SM OVC019 15/13 A2997 RMK AO2 T01450126 =
2016-09-28 03:35 METAR KSHD 280735Z AUTO 00000KT 10SM OVC019 15/12 A2997 RMK AO2 T01460123 =
2016-09-28 03:15 METAR KSHD 280715Z AUTO 00000KT 10SM -RA BKN020 OVC032 14/13 A2997 RMK AO2 LTG
                 DSNT E T01430126 =
2016-09-28 02:55 METAR KSHD 280655Z AUTO 24004KT 10SM -RA SCT017 BKN024 OVC033 14/12 A2997 RMK
                 AO2 T01440123 =
2016-09-28 02:35 METAR KSHD 280635Z AUTO 00000KT 10SM SCT022 BKN030 OVC080 14/11 A2997 RMK AO2
                 T01430112 =
2016-09-28 02:15 METAR KSHD 280615Z AUTO 00000KT 10SM SCT029 BKN036 OVC080 14/11 A2996 RMK AO2
                 T01430110 =
2016-09-28 01:55 METAR KSHD 280555Z AUTO 00000KT 10SM SCT019 BKN028 OVC038 15/11 A2996 RMK AO2
                 T01470108 10181 20139 402550139 =
2016-09-28 01:35 METAR KSHD 280535Z AUTO 00000KT 10SM BKN019 OVC030 15/11 A2997 RMK AO2 T01460111
                 =
2016-09-28 01:15 METAR KSHD 280515Z AUTO 00000KT 10SM BKN019 OVC026 15/11 A2997 RMK AO2 T01460108
                 =
2016-09-28 00:55 METAR KSHD 280455Z AUTO 00000KT 10SM SCT019 BKN026 OVC041 14/11 A2997 RMK AO2
                 T01440107 =
2016-09-28 00:35 METAR KSHD 280435Z AUTO 00000KT 10SM SCT028 BKN035 OVC043 15/11 A2997 RMK AO2
                 T01450110 =
2016-09-28 00:15 METAR KSHD 280415Z AUTO 00000KT 10SM SCT030 BKN037 15/12 A2997 RMK AO2 T01460118
                 =
2016-09-27 23:55 METAR KSHD 280355Z AUTO 00000KT 10SM SCT020 BKN037 BKN050 15/12 A2996 RMK AO2
                 T01490122 =
2016-09-27 23:35 METAR KSHD 280335Z AUTO 00000KT 10SM BKN039 BKN045 OVC055 16/13 A2996 RMK AO2
                 LTG DSNT S T01550130 =
2016-09-27 23:15 METAR KSHD 280315Z AUTO 33004KT 10SM SCT028 BKN039 OVC048 16/14 A2996 RMK AO2
                 T01570140 =

Support USWX by starting your Amazon purchase here.